sensor_id;sensor_type;location;lat;lon;timestamp;P1;durP1;ratioP1;P2;durP2;ratioP2
65039;SDS011;51606;45.000;38.612;2023-08-21T00:02:06;11.90;;;5.00;;
65039;SDS011;51606;45.000;38.612;2023-08-21T00:04:33;16.90;;;5.50;;
65039;SDS011;51606;45.000;38.612;2023-08-21T00:06:59;8.38;;;4.68;;
65039;SDS011;51606;45.000;38.612;2023-08-21T00:09:26;17.75;;;4.55;;
65039;SDS011;51606;45.000;38.612;2023-08-21T00:11:52;8.98;;;4.65;;
65039;SDS011;51606;45.000;38.612;2023-08-21T00:14:18;4.50;;;3.42;;
65039;SDS011;51606;45.000;38.612;2023-08-21T00:16:45;16.60;;;4.20;;
65039;SDS011;51606;45.000;38.612;2023-08-21T00:19:11;7.75;;;3.67;;
65039;SDS011;51606;45.000;38.612;2023-08-21T00:21:38;6.78;;;4.00;;
65039;SDS011;51606;45.000;38.612;2023-08-21T00:24:04;10.57;;;4.18;;
65039;SDS011;51606;45.000;38.612;2023-08-21T00:26:31;9.38;;;4.63;;
65039;SDS011;51606;45.000;38.612;2023-08-21T00:28:57;20.95;;;5.93;;
65039;SDS011;51606;45.000;38.612;2023-08-21T00:31:24;10.25;;;6.07;;
65039;SDS011;51606;45.000;38.612;2023-08-21T00:33:51;12.23;;;5.10;;
65039;SDS011;51606;45.000;38.612;2023-08-21T00:36:17;11.68;;;5.30;;
65039;SDS011;51606;45.000;38.612;2023-08-21T00:38:45;10.00;;;4.38;;
65039;SDS011;51606;45.000;38.612;2023-08-21T00:41:13;15.50;;;4.68;;
65039;SDS011;51606;45.000;38.612;2023-08-21T00:43:39;25.85;;;4.05;;
65039;SDS011;51606;45.000;38.612;2023-08-21T00:46:06;10.00;;;3.72;;
65039;SDS011;51606;45.000;38.612;2023-08-21T00:48:33;16.50;;;3.72;;
65039;SDS011;51606;45.000;38.612;2023-08-21T00:51:00;8.05;;;3.80;;
65039;SDS011;51606;45.000;38.612;2023-08-21T00:53:27;26.15;;;4.55;;
65039;SDS011;51606;45.000;38.612;2023-08-21T00:55:53;4.85;;;3.05;;
65039;SDS011;51606;45.000;38.612;2023-08-21T00:58:20;7.25;;;3.30;;
65039;SDS011;51606;45.000;38.612;2023-08-21T01:00:46;18.08;;;3.85;;
65039;SDS011;51606;45.000;38.612;2023-08-21T01:03:15;6.80;;;2.97;;
65039;SDS011;51606;45.000;38.612;2023-08-21T01:05:42;8.63;;;3.45;;
65039;SDS011;51606;45.000;38.612;2023-08-21T01:08:11;3.72;;;2.70;;
65039;SDS011;51606;45.000;38.612;2023-08-21T01:10:56;4.13;;;2.70;;
65039;SDS011;51606;45.000;38.612;2023-08-21T01:13:39;6.97;;;2.70;;
65039;SDS011;51606;45.000;38.612;2023-08-21T01:16:22;5.93;;;2.60;;
65039;SDS011;51606;45.000;38.612;2023-08-21T01:18:51;6.05;;;2.88;;
65039;SDS011;51606;45.000;38.612;2023-08-21T01:21:19;7.93;;;4.03;;
65039;SDS011;51606;45.000;38.612;2023-08-21T01:23:46;4.40;;;2.50;;
65039;SDS011;51606;45.000;38.612;2023-08-21T01:26:13;5.78;;;3.45;;
65039;SDS011;51606;45.000;38.612;2023-08-21T01:28:39;9.00;;;4.20;;
65039;SDS011;51606;45.000;38.612;2023-08-21T01:31:11;12.20;;;2.88;;
65039;SDS011;51606;45.000;38.612;2023-08-21T01:33:45;8.25;;;3.13;;
65039;SDS011;51606;45.000;38.612;2023-08-21T01:36:13;7.82;;;2.75;;
65039;SDS011;51606;45.000;38.612;2023-08-21T01:38:40;4.60;;;2.25;;
65039;SDS011;51606;45.000;38.612;2023-08-21T01:41:10;10.63;;;3.45;;
65039;SDS011;51606;45.000;38.612;2023-08-21T01:43:38;4.70;;;3.00;;
65039;SDS011;51606;45.000;38.612;2023-08-21T01:46:04;3.88;;;2.35;;
65039;SDS011;51606;45.000;38.612;2023-08-21T01:48:33;5.10;;;2.70;;
65039;SDS011;51606;45.000;38.612;2023-08-21T01:51:02;30.85;;;3.70;;
65039;SDS011;51606;45.000;38.612;2023-08-21T01:53:29;6.20;;;2.63;;
65039;SDS011;51606;45.000;38.612;2023-08-21T01:55:55;4.78;;;3.00;;
65039;SDS011;51606;45.000;38.612;2023-08-21T01:58:21;7.20;;;3.05;;
65039;SDS011;51606;45.000;38.612;2023-08-21T02:00:49;7.07;;;3.03;;
65039;SDS011;51606;45.000;38.612;2023-08-21T02:03:15;12.25;;;3.63;;
65039;SDS011;51606;45.000;38.612;2023-08-21T02:05:42;6.45;;;2.85;;
65039;SDS011;51606;45.000;38.612;2023-08-21T02:08:09;16.52;;;3.72;;
65039;SDS011;51606;45.000;38.612;2023-08-21T02:10:39;6.20;;;2.85;;
65039;SDS011;51606;45.000;38.612;2023-08-21T02:13:15;4.78;;;2.45;;
65039;SDS011;51606;45.000;38.612;2023-08-21T02:15:42;8.35;;;3.22;;
65039;SDS011;51606;45.000;38.612;2023-08-21T02:18:08;10.40;;;3.72;;
65039;SDS011;51606;45.000;38.612;2023-08-21T02:20:35;4.03;;;2.75;;
65039;SDS011;51606;45.000;38.612;2023-08-21T02:23:01;5.88;;;3.20;;
65039;SDS011;51606;45.000;38.612;2023-08-21T02:25:30;4.05;;;2.42;;
65039;SDS011;51606;45.000;38.612;2023-08-21T02:27:57;8.57;;;3.10;;
65039;SDS011;51606;45.000;38.612;2023-08-21T02:30:24;4.68;;;2.78;;
65039;SDS011;51606;45.000;38.612;2023-08-21T02:32:53;5.65;;;3.08;;
65039;SDS011;51606;45.000;38.612;2023-08-21T02:35:20;4.18;;;2.80;;
65039;SDS011;51606;45.000;38.612;2023-08-21T02:37:48;3.55;;;2.20;;
65039;SDS011;51606;45.000;38.612;2023-08-21T02:40:14;9.00;;;3.58;;
65039;SDS011;51606;45.000;38.612;2023-08-21T02:42:41;7.15;;;3.25;;
65039;SDS011;51606;45.000;38.612;2023-08-21T02:45:07;2.63;;;2.35;;
65039;SDS011;51606;45.000;38.612;2023-08-21T02:47:35;5.60;;;2.33;;
65039;SDS011;51606;45.000;38.612;2023-08-21T02:50:06;8.18;;;2.38;;
65039;SDS011;51606;45.000;38.612;2023-08-21T02:52:33;6.32;;;2.55;;
65039;SDS011;51606;45.000;38.612;2023-08-21T02:55:01;4.53;;;3.17;;
65039;SDS011;51606;45.000;38.612;2023-08-21T02:57:28;10.15;;;2.47;;
65039;SDS011;51606;45.000;38.612;2023-08-21T02:59:55;10.57;;;2.88;;
65039;SDS011;51606;45.000;38.612;2023-08-21T03:02:22;14.48;;;2.58;;
65039;SDS011;51606;45.000;38.612;2023-08-21T03:04:49;19.35;;;2.75;;
65039;SDS011;51606;45.000;38.612;2023-08-21T03:07:16;12.27;;;2.70;;
65039;SDS011;51606;45.000;38.612;2023-08-21T03:09:45;11.75;;;3.25;;
65039;SDS011;51606;45.000;38.612;2023-08-21T03:12:12;9.82;;;3.15;;
65039;SDS011;51606;45.000;38.612;2023-08-21T03:14:39;7.50;;;3.63;;
65039;SDS011;51606;45.000;38.612;2023-08-21T03:17:05;8.68;;;4.20;;
65039;SDS011;51606;45.000;38.612;2023-08-21T03:19:32;5.82;;;3.33;;
65039;SDS011;51606;45.000;38.612;2023-08-21T03:21:58;7.75;;;4.70;;
65039;SDS011;51606;45.000;38.612;2023-08-21T03:24:25;8.40;;;3.33;;
65039;SDS011;51606;45.000;38.612;2023-08-21T03:26:51;11.77;;;4.07;;
65039;SDS011;51606;45.000;38.612;2023-08-21T03:29:18;12.77;;;3.85;;
65039;SDS011;51606;45.000;38.612;2023-08-21T03:31:46;6.80;;;3.88;;
65039;SDS011;51606;45.000;38.612;2023-08-21T03:34:15;19.45;;;3.67;;
65039;SDS011;51606;45.000;38.612;2023-08-21T03:36:42;20.45;;;5.47;;
65039;SDS011;51606;45.000;38.612;2023-08-21T03:39:08;13.80;;;4.85;;
65039;SDS011;51606;45.000;38.612;2023-08-21T03:41:41;13.20;;;4.43;;
65039;SDS011;51606;45.000;38.612;2023-08-21T03:44:08;9.30;;;3.80;;
65039;SDS011;51606;45.000;38.612;2023-08-21T03:46:35;5.97;;;3.78;;
65039;SDS011;51606;45.000;38.612;2023-08-21T03:49:01;12.30;;;4.13;;
65039;SDS011;51606;45.000;38.612;2023-08-21T03:51:28;21.73;;;4.97;;
65039;SDS011;51606;45.000;38.612;2023-08-21T03:53:55;21.45;;;5.25;;
65039;SDS011;51606;45.000;38.612;2023-08-21T03:56:22;18.20;;;4.05;;
65039;SDS011;51606;45.000;38.612;2023-08-21T03:58:49;6.07;;;3.08;;
65039;SDS011;51606;45.000;38.612;2023-08-21T04:01:15;11.65;;;3.70;;
65039;SDS011;51606;45.000;38.612;2023-08-21T04:03:42;4.97;;;2.70;;
65039;SDS011;51606;45.000;38.612;2023-08-21T04:06:08;14.88;;;3.13;;
65039;SDS011;51606;45.000;38.612;2023-08-21T04:08:34;5.90;;;2.95;;
65039;SDS011;51606;45.000;38.612;2023-08-21T04:11:01;5.55;;;3.20;;
65039;SDS011;51606;45.000;38.612;2023-08-21T04:13:28;9.13;;;4.30;;
65039;SDS011;51606;45.000;38.612;2023-08-21T04:15:54;15.95;;;3.50;;
65039;SDS011;51606;45.000;38.612;2023-08-21T04:18:22;5.25;;;2.70;;
65039;SDS011;51606;45.000;38.612;2023-08-21T04:20:50;4.00;;;2.33;;
65039;SDS011;51606;45.000;38.612;2023-08-21T04:23:16;8.43;;;2.67;;
65039;SDS011;51606;45.000;38.612;2023-08-21T04:25:42;5.70;;;3.63;;
65039;SDS011;51606;45.000;38.612;2023-08-21T04:28:09;6.10;;;2.60;;
65039;SDS011;51606;45.000;38.612;2023-08-21T04:30:39;2.95;;;2.17;;
65039;SDS011;51606;45.000;38.612;2023-08-21T04:33:08;4.32;;;2.70;;
65039;SDS011;51606;45.000;38.612;2023-08-21T04:35:38;6.03;;;2.83;;
65039;SDS011;51606;45.000;38.612;2023-08-21T04:38:05;6.47;;;2.58;;
65039;SDS011;51606;45.000;38.612;2023-08-21T04:40:34;5.82;;;2.95;;
65039;SDS011;51606;45.000;38.612;2023-08-21T04:43:01;26.45;;;3.28;;
65039;SDS011;51606;45.000;38.612;2023-08-21T04:45:28;5.88;;;2.90;;
65039;SDS011;51606;45.000;38.612;2023-08-21T04:47:55;10.90;;;2.72;;
65039;SDS011;51606;45.000;38.612;2023-08-21T04:50:21;10.95;;;2.53;;
65039;SDS011;51606;45.000;38.612;2023-08-21T04:52:49;4.30;;;2.63;;
65039;SDS011;51606;45.000;38.612;2023-08-21T04:55:16;17.02;;;3.20;;
65039;SDS011;51606;45.000;38.612;2023-08-21T04:57:42;13.75;;;3.20;;
65039;SDS011;51606;45.000;38.612;2023-08-21T05:00:11;5.63;;;2.58;;
65039;SDS011;51606;45.000;38.612;2023-08-21T05:02:40;6.07;;;2.90;;
65039;SDS011;51606;45.000;38.612;2023-08-21T05:05:07;4.82;;;2.65;;
65039;SDS011;51606;45.000;38.612;2023-08-21T05:07:34;12.80;;;2.95;;
65039;SDS011;51606;45.000;38.612;2023-08-21T05:10:01;9.38;;;2.35;;
65039;SDS011;51606;45.000;38.612;2023-08-21T05:12:30;12.52;;;3.28;;
65039;SDS011;51606;45.000;38.612;2023-08-21T05:14:58;6.90;;;2.88;;
65039;SDS011;51606;45.000;38.612;2023-08-21T05:17:25;13.00;;;2.92;;
65039;SDS011;51606;45.000;38.612;2023-08-21T05:19:52;18.45;;;3.28;;
65039;SDS011;51606;45.000;38.612;2023-08-21T05:22:19;10.32;;;2.38;;
65039;SDS011;51606;45.000;38.612;2023-08-21T05:24:47;11.88;;;3.03;;
65039;SDS011;51606;45.000;38.612;2023-08-21T05:27:13;15.95;;;3.80;;
65039;SDS011;51606;45.000;38.612;2023-08-21T05:29:39;7.88;;;2.90;;
65039;SDS011;51606;45.000;38.612;2023-08-21T05:32:06;15.45;;;3.20;;
65039;SDS011;51606;45.000;38.612;2023-08-21T05:34:32;12.20;;;2.70;;
65039;SDS011;51606;45.000;38.612;2023-08-21T05:37:00;18.05;;;3.10;;
65039;SDS011;51606;45.000;38.612;2023-08-21T05:39:27;11.88;;;3.25;;
65039;SDS011;51606;45.000;38.612;2023-08-21T05:41:53;11.38;;;2.83;;
65039;SDS011;51606;45.000;38.612;2023-08-21T05:44:20;8.20;;;2.70;;
65039;SDS011;51606;45.000;38.612;2023-08-21T05:46:47;6.97;;;3.05;;
65039;SDS011;51606;45.000;38.612;2023-08-21T05:49:13;3.95;;;2.40;;
65039;SDS011;51606;45.000;38.612;2023-08-21T05:51:39;9.43;;;3.15;;
65039;SDS011;51606;45.000;38.612;2023-08-21T05:54:07;15.90;;;2.72;;
65039;SDS011;51606;45.000;38.612;2023-08-21T05:56:36;7.13;;;2.78;;
65039;SDS011;51606;45.000;38.612;2023-08-21T05:59:02;7.38;;;3.28;;
65039;SDS011;51606;45.000;38.612;2023-08-21T06:01:29;5.90;;;2.72;;
65039;SDS011;51606;45.000;38.612;2023-08-21T06:03:57;6.93;;;2.95;;
65039;SDS011;51606;45.000;38.612;2023-08-21T06:06:40;10.52;;;3.95;;
65039;SDS011;51606;45.000;38.612;2023-08-21T06:09:07;8.70;;;5.13;;
65039;SDS011;51606;45.000;38.612;2023-08-21T06:11:33;14.48;;;4.75;;
65039;SDS011;51606;45.000;38.612;2023-08-21T06:14:02;16.73;;;4.32;;
65039;SDS011;51606;45.000;38.612;2023-08-21T06:16:28;9.20;;;3.92;;
65039;SDS011;51606;45.000;38.612;2023-08-21T06:18:55;12.55;;;4.97;;
65039;SDS011;51606;45.000;38.612;2023-08-21T06:21:21;13.15;;;7.00;;
65039;SDS011;51606;45.000;38.612;2023-08-21T06:23:48;17.15;;;6.25;;
65039;SDS011;51606;45.000;38.612;2023-08-21T06:26:14;13.85;;;6.93;;
65039;SDS011;51606;45.000;38.612;2023-08-21T06:28:40;8.80;;;5.18;;
65039;SDS011;51606;45.000;38.612;2023-08-21T06:31:08;11.05;;;5.57;;
65039;SDS011;51606;45.000;38.612;2023-08-21T06:33:37;9.75;;;5.30;;
65039;SDS011;51606;45.000;38.612;2023-08-21T06:36:04;13.18;;;5.93;;
65039;SDS011;51606;45.000;38.612;2023-08-21T06:38:31;10.50;;;6.43;;
65039;SDS011;51606;45.000;38.612;2023-08-21T06:40:58;14.55;;;5.78;;
65039;SDS011;51606;45.000;38.612;2023-08-21T06:43:24;10.30;;;4.15;;
65039;SDS011;51606;45.000;38.612;2023-08-21T06:45:53;9.13;;;4.40;;
65039;SDS011;51606;45.000;38.612;2023-08-21T06:48:21;11.00;;;3.75;;
65039;SDS011;51606;45.000;38.612;2023-08-21T06:50:48;8.32;;;4.18;;
65039;SDS011;51606;45.000;38.612;2023-08-21T06:53:15;12.60;;;4.10;;
65039;SDS011;51606;45.000;38.612;2023-08-21T06:55:41;5.68;;;3.78;;
65039;SDS011;51606;45.000;38.612;2023-08-21T06:58:10;16.48;;;3.60;;
65039;SDS011;51606;45.000;38.612;2023-08-21T07:00:36;5.50;;;3.45;;
65039;SDS011;51606;45.000;38.612;2023-08-21T07:03:03;7.70;;;3.30;;
65039;SDS011;51606;45.000;38.612;2023-08-21T07:05:33;7.00;;;3.53;;
65039;SDS011;51606;45.000;38.612;2023-08-21T07:08:00;9.98;;;3.20;;
65039;SDS011;51606;45.000;38.612;2023-08-21T07:10:26;9.65;;;3.65;;
65039;SDS011;51606;45.000;38.612;2023-08-21T07:12:53;5.68;;;3.45;;
65039;SDS011;51606;45.000;38.612;2023-08-21T07:15:19;11.00;;;3.15;;
65039;SDS011;51606;45.000;38.612;2023-08-21T07:17:45;9.82;;;2.95;;
65039;SDS011;51606;45.000;38.612;2023-08-21T07:20:12;11.15;;;3.30;;
65039;SDS011;51606;45.000;38.612;2023-08-21T07:22:38;9.82;;;3.55;;
65039;SDS011;51606;45.000;38.612;2023-08-21T07:25:05;24.67;;;3.35;;
65039;SDS011;51606;45.000;38.612;2023-08-21T07:27:32;9.32;;;3.50;;
65039;SDS011;51606;45.000;38.612;2023-08-21T07:29:59;5.85;;;3.42;;
65039;SDS011;51606;45.000;38.612;2023-08-21T07:32:25;7.65;;;3.75;;
65039;SDS011;51606;45.000;38.612;2023-08-21T07:34:52;5.47;;;2.67;;
65039;SDS011;51606;45.000;38.612;2023-08-21T07:37:22;6.75;;;3.08;;
65039;SDS011;51606;45.000;38.612;2023-08-21T07:39:48;6.80;;;3.30;;
65039;SDS011;51606;45.000;38.612;2023-08-21T07:42:14;11.98;;;2.97;;
65039;SDS011;51606;45.000;38.612;2023-08-21T07:44:41;9.80;;;3.00;;
65039;SDS011;51606;45.000;38.612;2023-08-21T07:47:07;8.60;;;2.90;;
65039;SDS011;51606;45.000;38.612;2023-08-21T07:49:34;10.27;;;3.03;;
65039;SDS011;51606;45.000;38.612;2023-08-21T07:52:00;7.00;;;3.00;;
65039;SDS011;51606;45.000;38.612;2023-08-21T07:54:29;13.77;;;3.15;;
65039;SDS011;51606;45.000;38.612;2023-08-21T07:56:55;8.73;;;3.03;;
65039;SDS011;51606;45.000;38.612;2023-08-21T07:59:22;8.35;;;2.60;;
65039;SDS011;51606;45.000;38.612;2023-08-21T08:01:49;5.80;;;2.63;;
65039;SDS011;51606;45.000;38.612;2023-08-21T08:04:16;12.23;;;2.65;;
65039;SDS011;51606;45.000;38.612;2023-08-21T08:06:42;2.20;;;2.00;;
65039;SDS011;51606;45.000;38.612;2023-08-21T08:09:09;11.98;;;3.33;;
65039;SDS011;51606;45.000;38.612;2023-08-21T08:11:35;13.25;;;2.83;;
65039;SDS011;51606;45.000;38.612;2023-08-21T08:14:02;9.60;;;2.40;;
65039;SDS011;51606;45.000;38.612;2023-08-21T08:16:28;7.65;;;2.05;;
65039;SDS011;51606;45.000;38.612;2023-08-21T08:18:55;7.40;;;2.47;;
65039;SDS011;51606;45.000;38.612;2023-08-21T08:21:21;15.77;;;2.60;;
65039;SDS011;51606;45.000;38.612;2023-08-21T08:23:47;6.00;;;2.50;;
65039;SDS011;51606;45.000;38.612;2023-08-21T08:26:14;58.88;;;5.75;;
65039;SDS011;51606;45.000;38.612;2023-08-21T08:28:40;12.77;;;2.17;;
65039;SDS011;51606;45.000;38.612;2023-08-21T08:31:07;4.00;;;2.05;;
65039;SDS011;51606;45.000;38.612;2023-08-21T08:33:43;13.27;;;2.60;;
65039;SDS011;51606;45.000;38.612;2023-08-21T08:36:10;15.02;;;2.75;;
65039;SDS011;51606;45.000;38.612;2023-08-21T08:38:36;6.55;;;2.10;;
65039;SDS011;51606;45.000;38.612;2023-08-21T08:41:31;6.75;;;2.35;;
65039;SDS011;51606;45.000;38.612;2023-08-21T08:44:15;10.27;;;2.42;;
65039;SDS011;51606;45.000;38.612;2023-08-21T08:46:42;4.13;;;2.20;;
65039;SDS011;51606;45.000;38.612;2023-08-21T08:49:09;11.63;;;2.65;;
65039;SDS011;51606;45.000;38.612;2023-08-21T08:51:36;4.93;;;2.10;;
65039;SDS011;51606;45.000;38.612;2023-08-21T08:54:05;9.38;;;2.20;;
65039;SDS011;51606;45.000;38.612;2023-08-21T08:56:33;8.82;;;2.35;;
65039;SDS011;51606;45.000;38.612;2023-08-21T08:58:59;6.63;;;2.03;;
65039;SDS011;51606;45.000;38.612;2023-08-21T09:01:26;6.88;;;1.95;;
65039;SDS011;51606;45.000;38.612;2023-08-21T09:03:53;3.95;;;1.73;;
65039;SDS011;51606;45.000;38.612;2023-08-21T09:06:27;2.30;;;1.42;;
65039;SDS011;51606;45.000;38.612;2023-08-21T09:08:55;4.35;;;1.50;;
65039;SDS011;51606;45.000;38.612;2023-08-21T09:11:23;3.22;;;1.35;;
65039;SDS011;51606;45.000;38.612;2023-08-21T09:13:50;6.85;;;1.92;;
65039;SDS011;51606;45.000;38.612;2023-08-21T09:16:18;2.45;;;1.50;;
65039;SDS011;51606;45.000;38.612;2023-08-21T09:18:48;2.85;;;1.42;;
65039;SDS011;51606;45.000;38.612;2023-08-21T09:21:18;4.30;;;1.50;;
65039;SDS011;51606;45.000;38.612;2023-08-21T09:23:46;3.28;;;1.42;;
65039;SDS011;51606;45.000;38.612;2023-08-21T09:26:23;5.53;;;1.70;;
65039;SDS011;51606;45.000;38.612;2023-08-21T09:28:50;2.38;;;1.58;;
65039;SDS011;51606;45.000;38.612;2023-08-21T09:31:29;4.60;;;1.88;;
65039;SDS011;51606;45.000;38.612;2023-08-21T09:33:58;2.60;;;1.20;;
65039;SDS011;51606;45.000;38.612;2023-08-21T09:36:35;3.92;;;1.70;;
65039;SDS011;51606;45.000;38.612;2023-08-21T09:39:02;4.93;;;1.48;;
65039;SDS011;51606;45.000;38.612;2023-08-21T09:41:31;9.07;;;1.77;;
65039;SDS011;51606;45.000;38.612;2023-08-21T09:44:01;6.80;;;1.52;;
65039;SDS011;51606;45.000;38.612;2023-08-21T09:46:29;1.92;;;1.58;;
65039;SDS011;51606;45.000;38.612;2023-08-21T09:48:56;2.58;;;1.80;;
65039;SDS011;51606;45.000;38.612;2023-08-21T09:51:22;6.13;;;2.10;;
65039;SDS011;51606;45.000;38.612;2023-08-21T09:53:49;3.17;;;1.83;;
65039;SDS011;51606;45.000;38.612;2023-08-21T09:56:19;3.60;;;1.95;;
65039;SDS011;51606;45.000;38.612;2023-08-21T09:58:48;3.13;;;1.90;;
65039;SDS011;51606;45.000;38.612;2023-08-21T10:01:17;3.60;;;2.20;;
65039;SDS011;51606;45.000;38.612;2023-08-21T10:07:13;6.05;;;1.92;;
65039;SDS011;51606;45.000;38.612;2023-08-21T10:09:42;6.55;;;1.80;;
65039;SDS011;51606;45.000;38.612;2023-08-21T10:12:10;9.23;;;2.13;;
65039;SDS011;51606;45.000;38.612;2023-08-21T10:14:39;2.05;;;1.60;;
65039;SDS011;51606;45.000;38.612;2023-08-21T10:17:06;5.65;;;1.60;;
65039;SDS011;51606;45.000;38.612;2023-08-21T10:19:36;4.18;;;1.80;;
65039;SDS011;51606;45.000;38.612;2023-08-21T10:22:03;3.33;;;1.85;;
65039;SDS011;51606;45.000;38.612;2023-08-21T10:24:36;5.55;;;1.88;;
65039;SDS011;51606;45.000;38.612;2023-08-21T10:27:08;5.00;;;1.73;;
65039;SDS011;51606;45.000;38.612;2023-08-21T10:29:34;2.97;;;1.73;;
65039;SDS011;51606;45.000;38.612;2023-08-21T10:32:03;4.00;;;1.52;;
65039;SDS011;51606;45.000;38.612;2023-08-21T10:34:32;1.85;;;1.40;;
65039;SDS011;51606;45.000;38.612;2023-08-21T10:37:07;1.73;;;1.20;;
65039;SDS011;51606;45.000;38.612;2023-08-21T10:39:36;1.88;;;1.10;;
65039;SDS011;51606;45.000;38.612;2023-08-21T10:42:08;2.10;;;1.17;;
65039;SDS011;51606;45.000;38.612;2023-08-21T10:47:15;1.42;;;1.08;;
65039;SDS011;51606;45.000;38.612;2023-08-21T10:49:45;3.08;;;1.42;;
65039;SDS011;51606;45.000;38.612;2023-08-21T10:52:13;1.38;;;1.00;;
65039;SDS011;51606;45.000;38.612;2023-08-21T10:54:44;4.70;;;1.70;;
65039;SDS011;51606;45.000;38.612;2023-08-21T10:57:11;2.05;;;1.30;;
65039;SDS011;51606;45.000;38.612;2023-08-21T10:59:37;1.38;;;1.20;;
65039;SDS011;51606;45.000;38.612;2023-08-21T11:02:04;3.17;;;1.50;;
65039;SDS011;51606;45.000;38.612;2023-08-21T11:04:39;2.33;;;1.45;;
65039;SDS011;51606;45.000;38.612;2023-08-21T11:07:07;2.42;;;1.27;;
65039;SDS011;51606;45.000;38.612;2023-08-21T11:09:36;6.50;;;1.60;;
65039;SDS011;51606;45.000;38.612;2023-08-21T11:12:07;29.77;;;2.67;;
65039;SDS011;51606;45.000;38.612;2023-08-21T11:14:35;2.40;;;1.30;;
65039;SDS011;51606;45.000;38.612;2023-08-21T11:17:03;1.65;;;1.25;;
65039;SDS011;51606;45.000;38.612;2023-08-21T11:19:30;19.02;;;1.70;;
65039;SDS011;51606;45.000;38.612;2023-08-21T11:21:57;3.72;;;1.52;;
65039;SDS011;51606;45.000;38.612;2023-08-21T11:27:22;7.00;;;1.52;;
65039;SDS011;51606;45.000;38.612;2023-08-21T11:29:50;1.98;;;1.52;;
65039;SDS011;51606;45.000;38.612;2023-08-21T11:32:21;7.28;;;1.55;;
65039;SDS011;51606;45.000;38.612;2023-08-21T11:37:22;2.45;;;1.35;;
65039;SDS011;51606;45.000;38.612;2023-08-21T11:39:52;2.40;;;1.40;;
65039;SDS011;51606;45.000;38.612;2023-08-21T11:42:20;1.70;;;1.40;;
65039;SDS011;51606;45.000;38.612;2023-08-21T11:44:52;4.30;;;1.40;;
65039;SDS011;51606;45.000;38.612;2023-08-21T11:47:19;2.63;;;1.30;;
65039;SDS011;51606;45.000;38.612;2023-08-21T11:49:47;2.08;;;1.30;;
65039;SDS011;51606;45.000;38.612;2023-08-21T11:52:20;3.50;;;1.45;;
65039;SDS011;51606;45.000;38.612;2023-08-21T11:54:50;2.53;;;1.35;;
65039;SDS011;51606;45.000;38.612;2023-08-21T11:57:17;5.07;;;1.35;;
65039;SDS011;51606;45.000;38.612;2023-08-21T11:59:50;2.63;;;1.63;;
65039;SDS011;51606;45.000;38.612;2023-08-21T12:02:18;2.58;;;1.60;;
65039;SDS011;51606;45.000;38.612;2023-08-21T12:04:45;8.27;;;1.50;;
65039;SDS011;51606;45.000;38.612;2023-08-21T12:07:18;5.53;;;1.47;;
65039;SDS011;51606;45.000;38.612;2023-08-21T12:09:47;7.18;;;1.30;;
65039;SDS011;51606;45.000;38.612;2023-08-21T12:12:14;2.60;;;1.05;;
65039;SDS011;51606;45.000;38.612;2023-08-21T12:14:41;2.60;;;1.65;;
65039;SDS011;51606;45.000;38.612;2023-08-21T12:17:08;2.08;;;1.38;;
65039;SDS011;51606;45.000;38.612;2023-08-21T12:19:34;5.55;;;1.30;;
65039;SDS011;51606;45.000;38.612;2023-08-21T12:22:00;8.85;;;1.95;;
65039;SDS011;51606;45.000;38.612;2023-08-21T12:24:30;2.63;;;1.67;;
65039;SDS011;51606;45.000;38.612;2023-08-21T12:26:56;2.28;;;1.33;;
65039;SDS011;51606;45.000;38.612;2023-08-21T12:29:23;4.82;;;1.35;;
65039;SDS011;51606;45.000;38.612;2023-08-21T12:31:49;6.75;;;1.70;;
65039;SDS011;51606;45.000;38.612;2023-08-21T12:34:16;3.42;;;1.60;;
65039;SDS011;51606;45.000;38.612;2023-08-21T12:36:42;7.75;;;1.75;;
65039;SDS011;51606;45.000;38.612;2023-08-21T12:39:08;2.75;;;1.60;;
65039;SDS011;51606;45.000;38.612;2023-08-21T12:41:35;3.78;;;1.50;;
65039;SDS011;51606;45.000;38.612;2023-08-21T12:44:02;7.07;;;1.80;;
65039;SDS011;51606;45.000;38.612;2023-08-21T12:46:29;5.45;;;1.50;;
65039;SDS011;51606;45.000;38.612;2023-08-21T12:48:56;3.53;;;1.40;;
65039;SDS011;51606;45.000;38.612;2023-08-21T12:51:22;1.90;;;1.50;;
65039;SDS011;51606;45.000;38.612;2023-08-21T12:53:49;3.83;;;1.40;;
65039;SDS011;51606;45.000;38.612;2023-08-21T12:56:16;2.33;;;1.40;;
65039;SDS011;51606;45.000;38.612;2023-08-21T12:58:43;3.03;;;1.48;;
65039;SDS011;51606;45.000;38.612;2023-08-21T13:01:09;3.22;;;1.73;;
65039;SDS011;51606;45.000;38.612;2023-08-21T13:03:36;3.05;;;1.70;;
65039;SDS011;51606;45.000;38.612;2023-08-21T13:06:02;5.00;;;1.55;;
65039;SDS011;51606;45.000;38.612;2023-08-21T13:08:30;5.40;;;1.77;;
65039;SDS011;51606;45.000;38.612;2023-08-21T13:10:56;1.30;;;1.10;;
65039;SDS011;51606;45.000;38.612;2023-08-21T13:13:22;2.58;;;1.30;;
65039;SDS011;51606;45.000;38.612;2023-08-21T13:15:49;1.75;;;1.50;;
65039;SDS011;51606;45.000;38.612;2023-08-21T13:18:16;6.88;;;1.38;;
65039;SDS011;51606;45.000;38.612;2023-08-21T13:20:42;3.58;;;1.50;;
65039;SDS011;51606;45.000;38.612;2023-08-21T13:23:12;4.18;;;1.63;;
65039;SDS011;51606;45.000;38.612;2023-08-21T13:25:38;2.85;;;1.50;;
65039;SDS011;51606;45.000;38.612;2023-08-21T13:28:05;3.97;;;1.52;;
65039;SDS011;51606;45.000;38.612;2023-08-21T13:30:31;5.78;;;1.40;;
65039;SDS011;51606;45.000;38.612;2023-08-21T13:32:58;6.60;;;1.67;;
65039;SDS011;51606;45.000;38.612;2023-08-21T13:35:45;1.65;;;1.15;;
65039;SDS011;51606;45.000;38.612;2023-08-21T13:38:14;4.38;;;1.42;;
65039;SDS011;51606;45.000;38.612;2023-08-21T13:40:40;5.47;;;1.45;;
65039;SDS011;51606;45.000;38.612;2023-08-21T13:43:07;3.47;;;1.50;;
65039;SDS011;51606;45.000;38.612;2023-08-21T13:45:36;2.05;;;1.27;;
65039;SDS011;51606;45.000;38.612;2023-08-21T13:48:03;3.85;;;1.40;;
65039;SDS011;51606;45.000;38.612;2023-08-21T13:50:29;6.45;;;1.55;;
65039;SDS011;51606;45.000;38.612;2023-08-21T13:52:56;8.07;;;1.55;;
65039;SDS011;51606;45.000;38.612;2023-08-21T13:55:23;1.63;;;1.40;;
65039;SDS011;51606;45.000;38.612;2023-08-21T13:57:49;2.00;;;1.48;;
65039;SDS011;51606;45.000;38.612;2023-08-21T14:00:16;3.75;;;1.73;;
65039;SDS011;51606;45.000;38.612;2023-08-21T14:02:43;1.48;;;1.33;;
65039;SDS011;51606;45.000;38.612;2023-08-21T14:05:10;17.17;;;1.48;;
65039;SDS011;51606;45.000;38.612;2023-08-21T14:07:37;2.60;;;1.38;;
65039;SDS011;51606;45.000;38.612;2023-08-21T14:10:03;3.22;;;1.33;;
65039;SDS011;51606;45.000;38.612;2023-08-21T14:12:33;3.67;;;1.70;;
65039;SDS011;51606;45.000;38.612;2023-08-21T14:15:00;4.93;;;1.30;;
65039;SDS011;51606;45.000;38.612;2023-08-21T14:17:26;2.13;;;1.55;;
65039;SDS011;51606;45.000;38.612;2023-08-21T14:19:53;4.07;;;1.55;;
65039;SDS011;51606;45.000;38.612;2023-08-21T14:22:20;3.40;;;1.42;;
65039;SDS011;51606;45.000;38.612;2023-08-21T14:24:47;7.18;;;1.77;;
65039;SDS011;51606;45.000;38.612;2023-08-21T14:27:13;6.40;;;1.48;;
65039;SDS011;51606;45.000;38.612;2023-08-21T14:29:41;2.25;;;1.50;;
65039;SDS011;51606;45.000;38.612;2023-08-21T14:32:09;2.03;;;1.40;;
65039;SDS011;51606;45.000;38.612;2023-08-21T14:34:36;2.15;;;1.60;;
65039;SDS011;51606;45.000;38.612;2023-08-21T14:37:02;2.65;;;1.40;;
65039;SDS011;51606;45.000;38.612;2023-08-21T14:39:29;1.95;;;1.60;;
65039;SDS011;51606;45.000;38.612;2023-08-21T14:41:56;2.30;;;1.83;;
65039;SDS011;51606;45.000;38.612;2023-08-21T14:44:24;5.93;;;1.60;;
65039;SDS011;51606;45.000;38.612;2023-08-21T14:46:52;4.57;;;1.60;;